sensor_id;sensor_type;location;lat;lon;timestamp;P1;durP1;ratioP1;P2;durP2;ratioP2
76689;SDS011;70102;44.506;0.220;2023-05-25T00:03:35;6.40;;;2.53;;
76689;SDS011;70102;44.506;0.220;2023-05-25T00:09:07;8.07;;;2.80;;
76689;SDS011;70102;44.506;0.220;2023-05-25T00:14:40;4.93;;;2.97;;
76689;SDS011;70102;44.506;0.220;2023-05-25T00:20:12;4.97;;;2.97;;
76689;SDS011;70102;44.506;0.220;2023-05-25T00:25:45;5.73;;;2.53;;
76689;SDS011;70102;44.506;0.220;2023-05-25T00:31:18;6.93;;;3.13;;
76689;SDS011;70102;44.506;0.220;2023-05-25T00:36:50;6.27;;;2.53;;
76689;SDS011;70102;44.506;0.220;2023-05-25T00:42:23;4.87;;;2.60;;
76689;SDS011;70102;44.506;0.220;2023-05-25T00:47:55;10.83;;;3.00;;
76689;SDS011;70102;44.506;0.220;2023-05-25T00:53:27;5.80;;;2.83;;
76689;SDS011;70102;44.506;0.220;2023-05-25T00:59:02;5.37;;;2.43;;
76689;SDS011;70102;44.506;0.220;2023-05-25T01:04:33;5.67;;;2.60;;
76689;SDS011;70102;44.506;0.220;2023-05-25T01:10:07;5.13;;;3.33;;
76689;SDS011;70102;44.506;0.220;2023-05-25T01:15:40;7.13;;;2.70;;
76689;SDS011;70102;44.506;0.220;2023-05-25T01:21:16;4.37;;;2.23;;
76689;SDS011;70102;44.506;0.220;2023-05-25T01:26:47;4.90;;;2.93;;
76689;SDS011;70102;44.506;0.220;2023-05-25T01:32:19;10.00;;;3.43;;
76689;SDS011;70102;44.506;0.220;2023-05-25T01:37:53;3.77;;;2.47;;
76689;SDS011;70102;44.506;0.220;2023-05-25T01:43:26;9.23;;;3.47;;
76689;SDS011;70102;44.506;0.220;2023-05-25T01:49:01;6.13;;;3.40;;
76689;SDS011;70102;44.506;0.220;2023-05-25T01:54:34;9.33;;;3.37;;
76689;SDS011;70102;44.506;0.220;2023-05-25T02:00:05;7.23;;;2.73;;
76689;SDS011;70102;44.506;0.220;2023-05-25T02:05:37;8.90;;;2.87;;
76689;SDS011;70102;44.506;0.220;2023-05-25T02:11:11;6.93;;;2.40;;
76689;SDS011;70102;44.506;0.220;2023-05-25T02:16:41;4.23;;;2.57;;
76689;SDS011;70102;44.506;0.220;2023-05-25T02:22:14;6.43;;;2.27;;
76689;SDS011;70102;44.506;0.220;2023-05-25T02:27:47;5.60;;;2.87;;
76689;SDS011;70102;44.506;0.220;2023-05-25T02:33:18;5.20;;;2.10;;
76689;SDS011;70102;44.506;0.220;2023-05-25T02:38:52;8.00;;;3.10;;
76689;SDS011;70102;44.506;0.220;2023-05-25T02:44:25;4.10;;;2.20;;
76689;SDS011;70102;44.506;0.220;2023-05-25T02:49:59;12.80;;;2.70;;
76689;SDS011;70102;44.506;0.220;2023-05-25T02:55:30;6.90;;;2.30;;
76689;SDS011;70102;44.506;0.220;2023-05-25T03:01:04;6.20;;;2.10;;
76689;SDS011;70102;44.506;0.220;2023-05-25T03:06:36;4.57;;;2.63;;
76689;SDS011;70102;44.506;0.220;2023-05-25T03:12:10;4.23;;;2.00;;
76689;SDS011;70102;44.506;0.220;2023-05-25T03:17:42;6.90;;;2.00;;
76689;SDS011;70102;44.506;0.220;2023-05-25T03:23:16;4.90;;;1.93;;
76689;SDS011;70102;44.506;0.220;2023-05-25T03:28:49;4.63;;;2.00;;
76689;SDS011;70102;44.506;0.220;2023-05-25T03:34:21;5.33;;;1.90;;
76689;SDS011;70102;44.506;0.220;2023-05-25T03:39:54;3.33;;;1.77;;
76689;SDS011;70102;44.506;0.220;2023-05-25T03:45:26;3.60;;;1.93;;
76689;SDS011;70102;44.506;0.220;2023-05-25T03:50:59;4.03;;;1.77;;
76689;SDS011;70102;44.506;0.220;2023-05-25T03:56:32;4.23;;;2.00;;
76689;SDS011;70102;44.506;0.220;2023-05-25T04:02:04;6.13;;;1.93;;
76689;SDS011;70102;44.506;0.220;2023-05-25T04:07:36;4.67;;;1.70;;
76689;SDS011;70102;44.506;0.220;2023-05-25T04:13:08;4.20;;;1.73;;
76689;SDS011;70102;44.506;0.220;2023-05-25T04:18:41;6.43;;;1.83;;
76689;SDS011;70102;44.506;0.220;2023-05-25T04:24:14;4.57;;;2.00;;
76689;SDS011;70102;44.506;0.220;2023-05-25T04:29:46;3.03;;;1.80;;
76689;SDS011;70102;44.506;0.220;2023-05-25T04:35:19;4.90;;;1.47;;
76689;SDS011;70102;44.506;0.220;2023-05-25T04:40:52;4.53;;;2.20;;
76689;SDS011;70102;44.506;0.220;2023-05-25T04:46:25;3.17;;;2.10;;
76689;SDS011;70102;44.506;0.220;2023-05-25T04:51:58;5.17;;;2.30;;
76689;SDS011;70102;44.506;0.220;2023-05-25T04:57:31;3.03;;;1.70;;
76689;SDS011;70102;44.506;0.220;2023-05-25T05:03:03;2.47;;;2.00;;
76689;SDS011;70102;44.506;0.220;2023-05-25T05:08:37;5.03;;;1.97;;
76689;SDS011;70102;44.506;0.220;2023-05-25T05:14:10;7.67;;;1.80;;
76689;SDS011;70102;44.506;0.220;2023-05-25T05:19:42;4.77;;;1.80;;
76689;SDS011;70102;44.506;0.220;2023-05-25T05:25:15;2.23;;;1.37;;
76689;SDS011;70102;44.506;0.220;2023-05-25T05:30:48;4.83;;;1.70;;
76689;SDS011;70102;44.506;0.220;2023-05-25T05:36:21;3.60;;;1.77;;
76689;SDS011;70102;44.506;0.220;2023-05-25T05:41:55;4.97;;;1.50;;
76689;SDS011;70102;44.506;0.220;2023-05-25T05:47:29;4.60;;;1.57;;
76689;SDS011;70102;44.506;0.220;2023-05-25T05:53:00;2.97;;;1.80;;
76689;SDS011;70102;44.506;0.220;2023-05-25T05:58:33;16.00;;;2.93;;
76689;SDS011;70102;44.506;0.220;2023-05-25T06:04:07;3.23;;;1.70;;
76689;SDS011;70102;44.506;0.220;2023-05-25T06:09:39;6.67;;;1.30;;
76689;SDS011;70102;44.506;0.220;2023-05-25T06:15:12;2.73;;;2.03;;
76689;SDS011;70102;44.506;0.220;2023-05-25T06:20:45;7.60;;;1.50;;
76689;SDS011;70102;44.506;0.220;2023-05-25T06:26:18;3.17;;;1.40;;
76689;SDS011;70102;44.506;0.220;2023-05-25T06:31:52;5.13;;;1.43;;
76689;SDS011;70102;44.506;0.220;2023-05-25T06:37:25;2.77;;;1.43;;
76689;SDS011;70102;44.506;0.220;2023-05-25T06:42:58;4.97;;;2.00;;
76689;SDS011;70102;44.506;0.220;2023-05-25T06:48:31;5.10;;;1.60;;
76689;SDS011;70102;44.506;0.220;2023-05-25T06:54:04;6.70;;;2.17;;
76689;SDS011;70102;44.506;0.220;2023-05-25T06:59:36;6.10;;;2.60;;
76689;SDS011;70102;44.506;0.220;2023-05-25T07:05:10;2.10;;;1.43;;
76689;SDS011;70102;44.506;0.220;2023-05-25T07:10:44;11.00;;;2.33;;
76689;SDS011;70102;44.506;0.220;2023-05-25T07:16:17;5.73;;;2.10;;
76689;SDS011;70102;44.506;0.220;2023-05-25T07:21:49;8.50;;;2.30;;
76689;SDS011;70102;44.506;0.220;2023-05-25T07:27:22;5.33;;;1.67;;
76689;SDS011;70102;44.506;0.220;2023-05-25T07:32:54;4.70;;;1.93;;
76689;SDS011;70102;44.506;0.220;2023-05-25T07:38:28;4.40;;;1.80;;
76689;SDS011;70102;44.506;0.220;2023-05-25T07:44:01;3.10;;;1.77;;
76689;SDS011;70102;44.506;0.220;2023-05-25T07:49:33;4.83;;;1.77;;
76689;SDS011;70102;44.506;0.220;2023-05-25T07:55:06;2.70;;;1.80;;
76689;SDS011;70102;44.506;0.220;2023-05-25T08:00:40;4.90;;;1.93;;
76689;SDS011;70102;44.506;0.220;2023-05-25T08:06:13;4.20;;;2.03;;
76689;SDS011;70102;44.506;0.220;2023-05-25T08:11:45;5.33;;;1.80;;
76689;SDS011;70102;44.506;0.220;2023-05-25T08:17:18;6.50;;;2.03;;
76689;SDS011;70102;44.506;0.220;2023-05-25T08:22:51;4.43;;;2.20;;
76689;SDS011;70102;44.506;0.220;2023-05-25T08:28:24;5.00;;;1.67;;
76689;SDS011;70102;44.506;0.220;2023-05-25T08:33:56;4.73;;;2.10;;
76689;SDS011;70102;44.506;0.220;2023-05-25T08:39:29;7.47;;;2.60;;
76689;SDS011;70102;44.506;0.220;2023-05-25T08:45:02;4.97;;;1.73;;
76689;SDS011;70102;44.506;0.220;2023-05-25T08:50:35;4.03;;;1.67;;
76689;SDS011;70102;44.506;0.220;2023-05-25T08:56:09;3.53;;;1.40;;
76689;SDS011;70102;44.506;0.220;2023-05-25T09:01:43;2.77;;;1.97;;
76689;SDS011;70102;44.506;0.220;2023-05-25T09:07:16;8.03;;;1.70;;
76689;SDS011;70102;44.506;0.220;2023-05-25T09:12:50;4.63;;;1.57;;
76689;SDS011;70102;44.506;0.220;2023-05-25T09:18:23;3.17;;;1.57;;
76689;SDS011;70102;44.506;0.220;2023-05-25T09:23:55;5.60;;;1.70;;
76689;SDS011;70102;44.506;0.220;2023-05-25T09:29:27;7.83;;;1.83;;
76689;SDS011;70102;44.506;0.220;2023-05-25T09:35:05;2.50;;;1.50;;
76689;SDS011;70102;44.506;0.220;2023-05-25T09:40:33;3.60;;;1.60;;
76689;SDS011;70102;44.506;0.220;2023-05-25T09:46:09;3.07;;;1.60;;
76689;SDS011;70102;44.506;0.220;2023-05-25T09:51:39;2.70;;;1.70;;
76689;SDS011;70102;44.506;0.220;2023-05-25T09:57:12;4.70;;;1.70;;
76689;SDS011;70102;44.506;0.220;2023-05-25T10:02:46;6.17;;;1.50;;
76689;SDS011;70102;44.506;0.220;2023-05-25T10:08:18;3.27;;;1.77;;
76689;SDS011;70102;44.506;0.220;2023-05-25T10:13:50;5.53;;;2.20;;
76689;SDS011;70102;44.506;0.220;2023-05-25T10:19:24;2.57;;;2.00;;
76689;SDS011;70102;44.506;0.220;2023-05-25T10:24:58;2.87;;;2.20;;
76689;SDS011;70102;44.506;0.220;2023-05-25T10:30:29;2.10;;;1.77;;
76689;SDS011;70102;44.506;0.220;2023-05-25T10:36:02;2.33;;;1.83;;
76689;SDS011;70102;44.506;0.220;2023-05-25T10:41:34;2.90;;;1.70;;
76689;SDS011;70102;44.506;0.220;2023-05-25T10:47:07;3.50;;;1.80;;
76689;SDS011;70102;44.506;0.220;2023-05-25T10:52:41;3.37;;;1.70;;
76689;SDS011;70102;44.506;0.220;2023-05-25T10:58:15;14.63;;;2.20;;
76689;SDS011;70102;44.506;0.220;2023-05-25T11:03:53;2.23;;;1.40;;
76689;SDS011;70102;44.506;0.220;2023-05-25T11:09:22;3.90;;;1.67;;
76689;SDS011;70102;44.506;0.220;2023-05-25T11:20:26;5.73;;;2.10;;
76689;SDS011;70102;44.506;0.220;2023-05-25T11:26:03;5.63;;;1.70;;
76689;SDS011;70102;44.506;0.220;2023-05-25T11:31:32;2.40;;;1.27;;
76689;SDS011;70102;44.506;0.220;2023-05-25T11:37:04;3.50;;;2.00;;
76689;SDS011;70102;44.506;0.220;2023-05-25T11:42:36;4.93;;;1.90;;
76689;SDS011;70102;44.506;0.220;2023-05-25T11:48:12;5.83;;;2.43;;
76689;SDS011;70102;44.506;0.220;2023-05-25T11:53:43;6.50;;;1.73;;
76689;SDS011;70102;44.506;0.220;2023-05-25T11:59:16;3.00;;;2.00;;
76689;SDS011;70102;44.506;0.220;2023-05-25T12:04:51;4.17;;;1.80;;
76689;SDS011;70102;44.506;0.220;2023-05-25T12:10:21;2.93;;;1.63;;
76689;SDS011;70102;44.506;0.220;2023-05-25T12:15:54;3.43;;;1.67;;
76689;SDS011;70102;44.506;0.220;2023-05-25T12:21:27;2.90;;;1.47;;
76689;SDS011;70102;44.506;0.220;2023-05-25T12:27:01;4.50;;;2.13;;
76689;SDS011;70102;44.506;0.220;2023-05-25T12:32:34;3.83;;;1.60;;
76689;SDS011;70102;44.506;0.220;2023-05-25T12:38:08;4.67;;;2.00;;
76689;SDS011;70102;44.506;0.220;2023-05-25T12:43:41;4.47;;;1.70;;
76689;SDS011;70102;44.506;0.220;2023-05-25T12:54:46;2.90;;;1.67;;
76689;SDS011;70102;44.506;0.220;2023-05-25T13:00:20;2.37;;;1.37;;
76689;SDS011;70102;44.506;0.220;2023-05-25T13:05:50;3.93;;;1.70;;
76689;SDS011;70102;44.506;0.220;2023-05-25T13:11:24;1.50;;;1.40;;
76689;SDS011;70102;44.506;0.220;2023-05-25T13:17:00;3.07;;;1.53;;
76689;SDS011;70102;44.506;0.220;2023-05-25T13:22:31;3.40;;;2.10;;
76689;SDS011;70102;44.506;0.220;2023-05-25T13:28:02;1.93;;;1.43;;
76689;SDS011;70102;44.506;0.220;2023-05-25T13:33:36;2.30;;;1.97;;
76689;SDS011;70102;44.506;0.220;2023-05-25T13:39:10;1.80;;;1.33;;
76689;SDS011;70102;44.506;0.220;2023-05-25T13:44:42;2.87;;;1.40;;
76689;SDS011;70102;44.506;0.220;2023-05-25T13:50:15;4.97;;;1.77;;
76689;SDS011;70102;44.506;0.220;2023-05-25T13:55:47;5.90;;;1.73;;
76689;SDS011;70102;44.506;0.220;2023-05-25T14:01:20;3.43;;;1.93;;
76689;SDS011;70102;44.506;0.220;2023-05-25T14:06:53;6.47;;;1.70;;
76689;SDS011;70102;44.506;0.220;2023-05-25T14:12:26;3.13;;;1.60;;
76689;SDS011;70102;44.506;0.220;2023-05-25T14:17:59;5.43;;;2.40;;
76689;SDS011;70102;44.506;0.220;2023-05-25T14:23:32;5.97;;;2.00;;
76689;SDS011;70102;44.506;0.220;2023-05-25T14:29:06;2.70;;;1.40;;
76689;SDS011;70102;44.506;0.220;2023-05-25T14:34:40;2.27;;;1.50;;
76689;SDS011;70102;44.506;0.220;2023-05-25T14:40:13;4.17;;;2.27;;
76689;SDS011;70102;44.506;0.220;2023-05-25T14:45:45;4.70;;;2.07;;
76689;SDS011;70102;44.506;0.220;2023-05-25T14:51:19;5.30;;;2.23;;
76689;SDS011;70102;44.506;0.220;2023-05-25T14:56:51;4.93;;;1.97;;
76689;SDS011;70102;44.506;0.220;2023-05-25T15:02:25;4.00;;;1.93;;
76689;SDS011;70102;44.506;0.220;2023-05-25T15:07:56;3.27;;;2.20;;
76689;SDS011;70102;44.506;0.220;2023-05-25T15:13:30;3.77;;;1.83;;
76689;SDS011;70102;44.506;0.220;2023-05-25T15:19:04;4.73;;;1.67;;
76689;SDS011;70102;44.506;0.220;2023-05-25T15:24:37;3.97;;;1.90;;
76689;SDS011;70102;44.506;0.220;2023-05-25T15:30:10;2.67;;;1.50;;
76689;SDS011;70102;44.506;0.220;2023-05-25T15:35:44;3.77;;;2.67;;
76689;SDS011;70102;44.506;0.220;2023-05-25T15:41:17;4.97;;;2.40;;
76689;SDS011;70102;44.506;0.220;2023-05-25T15:46:50;5.43;;;1.60;;
76689;SDS011;70102;44.506;0.220;2023-05-25T15:52:23;4.27;;;1.73;;
76689;SDS011;70102;44.506;0.220;2023-05-25T15:57:57;3.90;;;1.77;;
76689;SDS011;70102;44.506;0.220;2023-05-25T16:03:29;5.03;;;3.17;;
76689;SDS011;70102;44.506;0.220;2023-05-25T16:09:01;4.50;;;1.93;;
76689;SDS011;70102;44.506;0.220;2023-05-25T16:14:33;4.03;;;2.13;;
76689;SDS011;70102;44.506;0.220;2023-05-25T16:20:07;4.20;;;2.53;;
76689;SDS011;70102;44.506;0.220;2023-05-25T16:25:39;2.87;;;1.73;;
76689;SDS011;70102;44.506;0.220;2023-05-25T16:31:12;3.10;;;1.70;;
76689;SDS011;70102;44.506;0.220;2023-05-25T16:36:45;4.13;;;1.80;;
76689;SDS011;70102;44.506;0.220;2023-05-25T16:42:18;3.63;;;1.63;;
76689;SDS011;70102;44.506;0.220;2023-05-25T16:47:51;2.03;;;1.67;;
76689;SDS011;70102;44.506;0.220;2023-05-25T16:53:24;2.90;;;1.60;;
76689;SDS011;70102;44.506;0.220;2023-05-25T16:58:56;7.20;;;1.80;;
76689;SDS011;70102;44.506;0.220;2023-05-25T17:04:28;2.10;;;1.77;;
76689;SDS011;70102;44.506;0.220;2023-05-25T17:10:01;1.77;;;1.67;;
76689;SDS011;70102;44.506;0.220;2023-05-25T17:15:34;2.23;;;1.70;;
76689;SDS011;70102;44.506;0.220;2023-05-25T17:21:07;2.00;;;1.80;;
76689;SDS011;70102;44.506;0.220;2023-05-25T17:26:41;3.73;;;2.00;;
76689;SDS011;70102;44.506;0.220;2023-05-25T17:32:14;4.27;;;2.10;;
76689;SDS011;70102;44.506;0.220;2023-05-25T17:37:46;3.90;;;1.87;;
76689;SDS011;70102;44.506;0.220;2023-05-25T17:43:18;3.77;;;2.10;;
76689;SDS011;70102;44.506;0.220;2023-05-25T17:48:51;2.77;;;2.20;;
76689;SDS011;70102;44.506;0.220;2023-05-25T17:54:24;4.27;;;1.90;;
76689;SDS011;70102;44.506;0.220;2023-05-25T17:59:57;4.97;;;1.93;;
76689;SDS011;70102;44.506;0.220;2023-05-25T18:05:30;4.00;;;2.20;;
76689;SDS011;70102;44.506;0.220;2023-05-25T18:11:02;5.10;;;2.33;;
76689;SDS011;70102;44.506;0.220;2023-05-25T18:16:36;8.43;;;2.30;;
76689;SDS011;70102;44.506;0.220;2023-05-25T18:22:07;3.77;;;1.60;;
76689;SDS011;70102;44.506;0.220;2023-05-25T18:27:40;3.27;;;1.90;;
76689;SDS011;70102;44.506;0.220;2023-05-25T18:33:14;5.13;;;2.13;;
76689;SDS011;70102;44.506;0.220;2023-05-25T18:38:46;3.13;;;1.70;;
76689;SDS011;70102;44.506;0.220;2023-05-25T18:44:19;4.47;;;2.30;;
76689;SDS011;70102;44.506;0.220;2023-05-25T18:49:52;5.03;;;2.20;;
76689;SDS011;70102;44.506;0.220;2023-05-25T18:55:25;4.53;;;1.80;;
76689;SDS011;70102;44.506;0.220;2023-05-25T19:00:58;7.60;;;5.73;;
76689;SDS011;70102;44.506;0.220;2023-05-25T19:06:32;4.27;;;2.00;;
76689;SDS011;70102;44.506;0.220;2023-05-25T19:12:04;5.53;;;2.53;;
76689;SDS011;70102;44.506;0.220;2023-05-25T19:17:37;4.47;;;2.73;;
76689;SDS011;70102;44.506;0.220;2023-05-25T19:23:10;8.43;;;2.43;;
76689;SDS011;70102;44.506;0.220;2023-05-25T19:28:42;3.57;;;2.20;;
76689;SDS011;70102;44.506;0.220;2023-05-25T19:34:15;8.97;;;2.27;;
76689;SDS011;70102;44.506;0.220;2023-05-25T19:39:47;3.53;;;1.97;;
76689;SDS011;70102;44.506;0.220;2023-05-25T19:45:21;2.30;;;1.67;;
76689;SDS011;70102;44.506;0.220;2023-05-25T19:50:53;2.93;;;1.90;;
76689;SDS011;70102;44.506;0.220;2023-05-25T19:56:25;8.97;;;2.23;;
76689;SDS011;70102;44.506;0.220;2023-05-25T20:01:57;7.77;;;2.90;;
76689;SDS011;70102;44.506;0.220;2023-05-25T20:07:29;6.47;;;2.50;;
76689;SDS011;70102;44.506;0.220;2023-05-25T20:13:02;5.67;;;2.67;;
76689;SDS011;70102;44.506;0.220;2023-05-25T20:18:34;3.77;;;2.63;;
76689;SDS011;70102;44.506;0.220;2023-05-25T20:24:08;5.10;;;2.20;;
76689;SDS011;70102;44.506;0.220;2023-05-25T20:29:39;4.97;;;2.47;;
76689;SDS011;70102;44.506;0.220;2023-05-25T20:40:44;3.27;;;2.93;;
76689;SDS011;70102;44.506;0.220;2023-05-25T20:46:17;6.20;;;2.40;;
76689;SDS011;70102;44.506;0.220;2023-05-25T20:51:49;6.07;;;2.00;;
76689;SDS011;70102;44.506;0.220;2023-05-25T20:57:21;12.83;;;3.20;;
76689;SDS011;70102;44.506;0.220;2023-05-25T21:02:54;11.13;;;2.77;;
76689;SDS011;70102;44.506;0.220;2023-05-25T21:08:28;4.90;;;2.17;;
76689;SDS011;70102;44.506;0.220;2023-05-25T21:14:01;5.93;;;2.70;;
76689;SDS011;70102;44.506;0.220;2023-05-25T21:19:34;5.57;;;2.83;;
76689;SDS011;70102;44.506;0.220;2023-05-25T21:25:07;4.87;;;2.43;;
76689;SDS011;70102;44.506;0.220;2023-05-25T21:30:40;4.10;;;2.47;;
76689;SDS011;70102;44.506;0.220;2023-05-25T21:36:11;7.37;;;2.53;;
76689;SDS011;70102;44.506;0.220;2023-05-25T21:41:45;6.83;;;3.00;;
76689;SDS011;70102;44.506;0.220;2023-05-25T21:47:18;3.93;;;2.13;;
76689;SDS011;70102;44.506;0.220;2023-05-25T21:52:52;2.40;;;2.20;;
76689;SDS011;70102;44.506;0.220;2023-05-25T21:58:25;4.00;;;2.27;;
76689;SDS011;70102;44.506;0.220;2023-05-25T22:03:58;5.10;;;2.60;;
76689;SDS011;70102;44.506;0.220;2023-05-25T22:09:30;6.03;;;3.73;;
76689;SDS011;70102;44.506;0.220;2023-05-25T22:15:04;4.43;;;3.30;;
76689;SDS011;70102;44.506;0.220;2023-05-25T22:20:36;7.37;;;3.47;;
76689;SDS011;70102;44.506;0.220;2023-05-25T22:26:08;5.80;;;3.00;;
76689;SDS011;70102;44.506;0.220;2023-05-25T22:31:42;10.33;;;3.07;;
76689;SDS011;70102;44.506;0.220;2023-05-25T22:37:15;4.00;;;2.67;;
76689;SDS011;70102;44.506;0.220;2023-05-25T22:42:47;8.23;;;3.00;;
76689;SDS011;70102;44.506;0.220;2023-05-25T22:48:21;7.47;;;3.50;;
76689;SDS011;70102;44.506;0.220;2023-05-25T22:53:54;7.40;;;3.00;;
76689;SDS011;70102;44.506;0.220;2023-05-25T22:59:27;10.27;;;3.47;;
76689;SDS011;70102;44.506;0.220;2023-05-25T23:05:00;6.97;;;3.70;;
76689;SDS011;70102;44.506;0.220;2023-05-25T23:10:33;7.90;;;3.03;;
76689;SDS011;70102;44.506;0.220;2023-05-25T23:16:06;17.80;;;3.80;;
76689;SDS011;70102;44.506;0.220;2023-05-25T23:21:39;8.10;;;4.07;;
76689;SDS011;70102;44.506;0.220;2023-05-25T23:27:11;7.53;;;3.93;;
76689;SDS011;70102;44.506;0.220;2023-05-25T23:32:44;5.37;;;3.50;;
76689;SDS011;70102;44.506;0.220;2023-05-25T23:38:16;5.63;;;3.37;;
76689;SDS011;70102;44.506;0.220;2023-05-25T23:43:48;5.60;;;3.50;;
76689;SDS011;70102;44.506;0.220;2023-05-25T23:49:20;5.43;;;3.40;;
76689;SDS011;70102;44.506;0.220;2023-05-25T23:54:54;9.33;;;3.50;;
